Tekoa, Washington
Current Conditions -  °F | °C
As of 12:00 AM on Sunday 21 Dec 2014 (Local Time) from KPUW Reporting Station
Overcast Overcast  
Wind Chill: 37°   Ceiling: 1800
Heat Index: 43°   Visibility: 10mi
Dew Point: 40°   Wind: 12mph
Humidity: 89%   Direction: 170°S
Pressure: 29.54"   Gusts: NA
Location:  47.22°N, 117.07°W
Report Text: KPUW 210800Z AUTO 17010KT 10SM OVC018 06/04 A2954 RMK AO2 T00610044
Loading
Personal Weather Stations






























Interactive Weather Map New forecast layout! Learn more

10-Day Weather Forecast

Advertisements
Track Severe Weather on mobile